sensor_id;sensor_type;location;lat;lon;timestamp;temperature;humidity
71039;SHT30;58692;43.212;27.908;2023-02-28T00:01:40;9.39;75.18
71039;SHT30;58692;43.212;27.908;2023-02-28T00:04:06;9.13;75.73
71039;SHT30;58692;43.212;27.908;2023-02-28T00:06:34;9.24;75.89
71039;SHT30;58692;43.212;27.908;2023-02-28T00:08:59;9.41;75.52
71039;SHT30;58692;43.212;27.908;2023-02-28T00:11:25;9.43;75.35
71039;SHT30;58692;43.212;27.908;2023-02-28T00:13:50;9.54;75.05
71039;SHT30;58692;43.212;27.908;2023-02-28T00:16:19;9.61;74.46
71039;SHT30;58692;43.212;27.908;2023-02-28T00:18:45;9.60;74.64
71039;SHT30;58692;43.212;27.908;2023-02-28T00:21:12;9.62;74.27
71039;SHT30;58692;43.212;27.908;2023-02-28T00:23:38;9.65;74.75
71039;SHT30;58692;43.212;27.908;2023-02-28T00:26:03;9.47;74.72
71039;SHT30;58692;43.212;27.908;2023-02-28T00:28:29;9.44;75.32
71039;SHT30;58692;43.212;27.908;2023-02-28T00:30:55;9.44;75.19
71039;SHT30;58692;43.212;27.908;2023-02-28T00:33:20;9.47;75.43
71039;SHT30;58692;43.212;27.908;2023-02-28T00:35:46;9.51;75.25
71039;SHT30;58692;43.212;27.908;2023-02-28T00:38:13;9.27;75.51
71039;SHT30;58692;43.212;27.908;2023-02-28T00:40:38;9.16;75.57
71039;SHT30;58692;43.212;27.908;2023-02-28T00:43:04;9.23;76.06
71039;SHT30;58692;43.212;27.908;2023-02-28T00:45:31;9.24;75.63
71039;SHT30;58692;43.212;27.908;2023-02-28T00:47:56;9.17;75.84
71039;SHT30;58692;43.212;27.908;2023-02-28T00:50:22;9.22;76.03
71039;SHT30;58692;43.212;27.908;2023-02-28T00:52:47;9.40;75.38
71039;SHT30;58692;43.212;27.908;2023-02-28T00:55:13;9.50;75.21
71039;SHT30;58692;43.212;27.908;2023-02-28T00:57:39;9.44;75.35
71039;SHT30;58692;43.212;27.908;2023-02-28T01:00:05;9.46;75.99
71039;SHT30;58692;43.212;27.908;2023-02-28T01:02:31;9.46;75.11
71039;SHT30;58692;43.212;27.908;2023-02-28T01:04:57;9.15;75.64
71039;SHT30;58692;43.212;27.908;2023-02-28T01:07:23;9.03;76.02
71039;SHT30;58692;43.212;27.908;2023-02-28T01:09:49;8.69;76.88
71039;SHT30;58692;43.212;27.908;2023-02-28T01:12:15;8.51;77.79
71039;SHT30;58692;43.212;27.908;2023-02-28T01:14:41;8.42;78.17
71039;SHT30;58692;43.212;27.908;2023-02-28T01:17:07;8.45;78.12
71039;SHT30;58692;43.212;27.908;2023-02-28T01:19:32;8.62;77.88
71039;SHT30;58692;43.212;27.908;2023-02-28T01:22:02;8.52;77.61
71039;SHT30;58692;43.212;27.908;2023-02-28T01:24:28;8.61;77.64
71039;SHT30;58692;43.212;27.908;2023-02-28T01:26:54;8.72;77.21
71039;SHT30;58692;43.212;27.908;2023-02-28T01:29:19;8.65;77.50
71039;SHT30;58692;43.212;27.908;2023-02-28T01:31:45;8.76;77.31
71039;SHT30;58692;43.212;27.908;2023-02-28T01:34:10;8.88;76.74
71039;SHT30;58692;43.212;27.908;2023-02-28T01:36:36;8.86;76.78
71039;SHT30;58692;43.212;27.908;2023-02-28T01:39:02;8.80;77.19
71039;SHT30;58692;43.212;27.908;2023-02-28T01:41:31;8.68;77.15
71039;SHT30;58692;43.212;27.908;2023-02-28T01:46:29;8.72;77.68
71039;SHT30;58692;43.212;27.908;2023-02-28T01:49:08;8.79;76.82
71039;SHT30;58692;43.212;27.908;2023-02-28T01:51:43;8.93;76.31
71039;SHT30;58692;43.212;27.908;2023-02-28T01:54:19;8.86;76.33
71039;SHT30;58692;43.212;27.908;2023-02-28T01:56:51;8.96;77.07
71039;SHT30;58692;43.212;27.908;2023-02-28T01:59:28;9.00;76.29
71039;SHT30;58692;43.212;27.908;2023-02-28T02:01:55;9.13;76.52
71039;SHT30;58692;43.212;27.908;2023-02-28T02:04:23;9.00;76.30
71039;SHT30;58692;43.212;27.908;2023-02-28T02:06:51;9.02;75.73
71039;SHT30;58692;43.212;27.908;2023-02-28T02:09:17;8.73;76.19
71039;SHT30;58692;43.212;27.908;2023-02-28T02:11:43;8.59;76.72
71039;SHT30;58692;43.212;27.908;2023-02-28T02:25:28;8.58;76.59
71039;SHT30;58692;43.212;27.908;2023-02-28T02:30:41;8.69;76.94
71039;SHT30;58692;43.212;27.908;2023-02-28T02:33:15;8.76;76.25
71039;SHT30;58692;43.212;27.908;2023-02-28T02:38:36;8.89;75.95
71039;SHT30;58692;43.212;27.908;2023-02-28T02:41:11;8.78;76.04
71039;SHT30;58692;43.212;27.908;2023-02-28T02:46:31;8.51;77.10
71039;SHT30;58692;43.212;27.908;2023-02-28T02:49:01;8.51;77.08
71039;SHT30;58692;43.212;27.908;2023-02-28T02:51:30;8.56;77.39
71039;SHT30;58692;43.212;27.908;2023-02-28T02:54:03;8.65;77.20
71039;SHT30;58692;43.212;27.908;2023-02-28T02:56:32;8.65;75.93
71039;SHT30;58692;43.212;27.908;2023-02-28T02:59:02;8.72;75.97
71039;SHT30;58692;43.212;27.908;2023-02-28T03:01:28;8.61;76.20
71039;SHT30;58692;43.212;27.908;2023-02-28T03:03:59;8.61;76.06
71039;SHT30;58692;43.212;27.908;2023-02-28T03:06:26;8.78;76.25
71039;SHT30;58692;43.212;27.908;2023-02-28T03:08:52;8.89;75.48
71039;SHT30;58692;43.212;27.908;2023-02-28T03:11:18;8.83;75.38
71039;SHT30;58692;43.212;27.908;2023-02-28T03:16:21;8.73;75.18
71039;SHT30;58692;43.212;27.908;2023-02-28T03:21:36;8.78;75.27
71039;SHT30;58692;43.212;27.908;2023-02-28T03:24:08;8.51;75.09
71039;SHT30;58692;43.212;27.908;2023-02-28T03:26:39;8.52;75.51
71039;SHT30;58692;43.212;27.908;2023-02-28T03:29:13;8.42;76.08
71039;SHT30;58692;43.212;27.908;2023-02-28T03:31:50;8.15;76.51
71039;SHT30;58692;43.212;27.908;2023-02-28T03:34:34;8.27;76.76
71039;SHT30;58692;43.212;27.908;2023-02-28T03:37:07;8.24;76.52
71039;SHT30;58692;43.212;27.908;2023-02-28T03:39:38;7.84;77.68
71039;SHT30;58692;43.212;27.908;2023-02-28T03:42:20;7.89;77.87
71039;SHT30;58692;43.212;27.908;2023-02-28T03:44:52;8.08;77.70
71039;SHT30;58692;43.212;27.908;2023-02-28T03:47:24;8.20;76.94
71039;SHT30;58692;43.212;27.908;2023-02-28T03:49:57;8.04;77.70
71039;SHT30;58692;43.212;27.908;2023-02-28T03:52:28;8.00;77.72
71039;SHT30;58692;43.212;27.908;2023-02-28T03:55:00;7.74;78.29
71039;SHT30;58692;43.212;27.908;2023-02-28T03:59:58;8.01;77.77
71039;SHT30;58692;43.212;27.908;2023-02-28T04:02:26;7.93;77.33
71039;SHT30;58692;43.212;27.908;2023-02-28T04:04:52;7.79;78.10
71039;SHT30;58692;43.212;27.908;2023-02-28T04:07:18;7.66;78.39
71039;SHT30;58692;43.212;27.908;2023-02-28T04:09:44;7.67;78.52
71039;SHT30;58692;43.212;27.908;2023-02-28T04:12:09;7.76;78.34
71039;SHT30;58692;43.212;27.908;2023-02-28T04:14:35;7.87;77.97
71039;SHT30;58692;43.212;27.908;2023-02-28T04:17:00;7.94;77.45
71039;SHT30;58692;43.212;27.908;2023-02-28T04:19:26;7.94;77.20
71039;SHT30;58692;43.212;27.908;2023-02-28T04:21:52;8.00;77.20
71039;SHT30;58692;43.212;27.908;2023-02-28T04:24:22;8.00;77.12
71039;SHT30;58692;43.212;27.908;2023-02-28T04:26:51;8.18;76.79
71039;SHT30;58692;43.212;27.908;2023-02-28T04:29:22;8.10;76.49
71039;SHT30;58692;43.212;27.908;2023-02-28T04:31:48;8.18;76.77
71039;SHT30;58692;43.212;27.908;2023-02-28T04:34:13;8.27;76.31
71039;SHT30;58692;43.212;27.908;2023-02-28T04:36:39;8.37;76.19
71039;SHT30;58692;43.212;27.908;2023-02-28T04:39:04;8.21;76.03
71039;SHT30;58692;43.212;27.908;2023-02-28T04:41:30;7.89;76.98
71039;SHT30;58692;43.212;27.908;2023-02-28T04:43:56;7.97;77.19
71039;SHT30;58692;43.212;27.908;2023-02-28T04:46:21;7.67;77.69
71039;SHT30;58692;43.212;27.908;2023-02-28T04:48:48;7.70;77.96
71039;SHT30;58692;43.212;27.908;2023-02-28T04:51:16;7.86;78.25
71039;SHT30;58692;43.212;27.908;2023-02-28T04:53:43;7.84;78.08
71039;SHT30;58692;43.212;27.908;2023-02-28T04:56:12;7.97;77.57
71039;SHT30;58692;43.212;27.908;2023-02-28T04:58:38;8.04;77.48
71039;SHT30;58692;43.212;27.908;2023-02-28T05:01:14;8.14;76.92
71039;SHT30;58692;43.212;27.908;2023-02-28T05:03:42;8.03;76.96
71039;SHT30;58692;43.212;27.908;2023-02-28T05:06:08;8.11;77.24
71039;SHT30;58692;43.212;27.908;2023-02-28T05:08:34;8.08;76.97
71039;SHT30;58692;43.212;27.908;2023-02-28T05:11:00;7.89;77.97
71039;SHT30;58692;43.212;27.908;2023-02-28T05:13:27;7.59;78.95
71039;SHT30;58692;43.212;27.908;2023-02-28T05:15:53;7.38;80.09
71039;SHT30;58692;43.212;27.908;2023-02-28T05:18:19;7.40;80.47
71039;SHT30;58692;43.212;27.908;2023-02-28T05:20:45;7.33;80.79
71039;SHT30;58692;43.212;27.908;2023-02-28T05:23:12;7.56;80.21
71039;SHT30;58692;43.212;27.908;2023-02-28T05:25:39;7.43;80.51
71039;SHT30;58692;43.212;27.908;2023-02-28T05:28:05;7.35;80.78
71039;SHT30;58692;43.212;27.908;2023-02-28T05:30:33;7.42;80.83
71039;SHT30;58692;43.212;27.908;2023-02-28T05:32:59;7.53;80.55
71039;SHT30;58692;43.212;27.908;2023-02-28T05:35:29;7.67;80.46
71039;SHT30;58692;43.212;27.908;2023-02-28T05:37:55;7.72;80.00
71039;SHT30;58692;43.212;27.908;2023-02-28T05:40:21;7.73;80.16
71039;SHT30;58692;43.212;27.908;2023-02-28T05:42:50;8.01;79.73
71039;SHT30;58692;43.212;27.908;2023-02-28T05:45:16;8.11;79.19
71039;SHT30;58692;43.212;27.908;2023-02-28T05:47:42;8.15;78.99
71039;SHT30;58692;43.212;27.908;2023-02-28T05:50:09;8.17;79.45
71039;SHT30;58692;43.212;27.908;2023-02-28T05:52:37;8.07;80.03
71039;SHT30;58692;43.212;27.908;2023-02-28T05:55:05;8.04;80.38
71039;SHT30;58692;43.212;27.908;2023-02-28T05:57:31;7.89;81.83
71039;SHT30;58692;43.212;27.908;2023-02-28T05:59:57;7.62;83.88
71039;SHT30;58692;43.212;27.908;2023-02-28T06:02:22;7.46;84.73
71039;SHT30;58692;43.212;27.908;2023-02-28T06:04:48;7.39;86.85
71039;SHT30;58692;43.212;27.908;2023-02-28T06:07:14;7.35;86.42
71039;SHT30;58692;43.212;27.908;2023-02-28T06:09:40;7.49;87.40
71039;SHT30;58692;43.212;27.908;2023-02-28T06:12:07;7.63;87.94
71039;SHT30;58692;43.212;27.908;2023-02-28T06:14:35;7.82;88.43
71039;SHT30;58692;43.212;27.908;2023-02-28T06:17:02;7.82;87.61
71039;SHT30;58692;43.212;27.908;2023-02-28T06:19:28;7.62;86.93
71039;SHT30;58692;43.212;27.908;2023-02-28T06:21:58;7.72;88.14
71039;SHT30;58692;43.212;27.908;2023-02-28T06:24:25;7.70;87.90
71039;SHT30;58692;43.212;27.908;2023-02-28T06:26:56;7.80;87.86
71039;SHT30;58692;43.212;27.908;2023-02-28T06:29:22;7.84;88.48
71039;SHT30;58692;43.212;27.908;2023-02-28T06:31:48;7.93;86.99
71039;SHT30;58692;43.212;27.908;2023-02-28T06:34:14;7.94;85.81
71039;SHT30;58692;43.212;27.908;2023-02-28T06:36:41;7.73;84.74
71039;SHT30;58692;43.212;27.908;2023-02-28T06:39:08;7.74;85.55
71039;SHT30;58692;43.212;27.908;2023-02-28T06:41:34;7.65;85.31
71039;SHT30;58692;43.212;27.908;2023-02-28T06:44:04;7.66;85.70
71039;SHT30;58692;43.212;27.908;2023-02-28T06:46:31;7.62;85.04
71039;SHT30;58692;43.212;27.908;2023-02-28T06:49:01;7.60;85.90
71039;SHT30;58692;43.212;27.908;2023-02-28T06:51:39;7.63;85.65
71039;SHT30;58692;43.212;27.908;2023-02-28T06:54:05;7.66;85.83
71039;SHT30;58692;43.212;27.908;2023-02-28T06:56:38;7.87;86.96
71039;SHT30;58692;43.212;27.908;2023-02-28T06:59:05;7.97;86.08
71039;SHT30;58692;43.212;27.908;2023-02-28T07:01:31;8.03;85.87
71039;SHT30;58692;43.212;27.908;2023-02-28T07:04:08;8.13;85.73
71039;SHT30;58692;43.212;27.908;2023-02-28T07:06:34;8.20;86.47
71039;SHT30;58692;43.212;27.908;2023-02-28T07:09:18;8.05;83.55
71039;SHT30;58692;43.212;27.908;2023-02-28T07:11:47;8.15;84.43
71039;SHT30;58692;43.212;27.908;2023-02-28T07:14:13;8.20;84.93
71039;SHT30;58692;43.212;27.908;2023-02-28T07:16:39;8.33;85.65
71039;SHT30;58692;43.212;27.908;2023-02-28T07:19:06;8.17;83.77
71039;SHT30;58692;43.212;27.908;2023-02-28T07:21:43;8.13;84.56
71039;SHT30;58692;43.212;27.908;2023-02-28T07:24:10;8.11;84.68
71039;SHT30;58692;43.212;27.908;2023-02-28T07:26:38;8.07;84.08
71039;SHT30;58692;43.212;27.908;2023-02-28T07:29:18;7.79;84.09
71039;SHT30;58692;43.212;27.908;2023-02-28T07:31:47;7.89;84.80
71039;SHT30;58692;43.212;27.908;2023-02-28T07:34:45;7.91;85.08
71039;SHT30;58692;43.212;27.908;2023-02-28T07:37:38;8.01;84.83
71039;SHT30;58692;43.212;27.908;2023-02-28T07:40:18;8.01;84.16
71039;SHT30;58692;43.212;27.908;2023-02-28T07:42:50;7.89;84.91
71039;SHT30;58692;43.212;27.908;2023-02-28T07:45:27;7.86;84.65
71039;SHT30;58692;43.212;27.908;2023-02-28T07:47:56;7.82;84.75
71039;SHT30;58692;43.212;27.908;2023-02-28T07:50:25;7.62;84.81
71039;SHT30;58692;43.212;27.908;2023-02-28T07:52:53;7.72;85.25
71039;SHT30;58692;43.212;27.908;2023-02-28T07:55:19;7.69;84.24
71039;SHT30;58692;43.212;27.908;2023-02-28T07:57:45;7.80;84.88
71039;SHT30;58692;43.212;27.908;2023-02-28T08:00:19;7.89;85.18
71039;SHT30;58692;43.212;27.908;2023-02-28T08:03:01;7.79;83.32
71039;SHT30;58692;43.212;27.908;2023-02-28T08:05:30;7.69;84.57
71039;SHT30;58692;43.212;27.908;2023-02-28T08:07:57;7.87;85.04
71039;SHT30;58692;43.212;27.908;2023-02-28T08:10:26;8.03;84.06
71039;SHT30;58692;43.212;27.908;2023-02-28T08:12:53;8.10;82.91
71039;SHT30;58692;43.212;27.908;2023-02-28T08:15:19;7.79;83.04
71039;SHT30;58692;43.212;27.908;2023-02-28T08:17:45;7.33;83.65
71039;SHT30;58692;43.212;27.908;2023-02-28T08:20:14;7.42;86.06
71039;SHT30;58692;43.212;27.908;2023-02-28T08:23:03;7.67;84.96
71039;SHT30;58692;43.212;27.908;2023-02-28T08:25:28;7.82;83.67
71039;SHT30;58692;43.212;27.908;2023-02-28T08:28:02;7.60;84.41
71039;SHT30;58692;43.212;27.908;2023-02-28T08:30:28;7.82;84.93
71039;SHT30;58692;43.212;27.908;2023-02-28T08:33:00;7.90;84.35
71039;SHT30;58692;43.212;27.908;2023-02-28T08:35:27;7.91;84.29
71039;SHT30;58692;43.212;27.908;2023-02-28T08:37:53;7.86;83.67
71039;SHT30;58692;43.212;27.908;2023-02-28T08:40:21;7.73;83.48
71039;SHT30;58692;43.212;27.908;2023-02-28T08:42:47;7.86;83.19
71039;SHT30;58692;43.212;27.908;2023-02-28T08:45:14;7.89;83.48
71039;SHT30;58692;43.212;27.908;2023-02-28T08:47:43;7.97;83.48
71039;SHT30;58692;43.212;27.908;2023-02-28T08:50:09;7.83;82.02
71039;SHT30;58692;43.212;27.908;2023-02-28T08:52:42;7.58;82.76
71039;SHT30;58692;43.212;27.908;2023-02-28T08:55:09;7.50;83.49
71039;SHT30;58692;43.212;27.908;2023-02-28T08:57:37;7.82;83.91
71039;SHT30;58692;43.212;27.908;2023-02-28T09:00:04;7.91;82.69
71039;SHT30;58692;43.212;27.908;2023-02-28T09:02:31;7.89;82.73
71039;SHT30;58692;43.212;27.908;2023-02-28T09:04:57;8.05;82.56
71039;SHT30;58692;43.212;27.908;2023-02-28T09:07:32;8.18;82.06
71039;SHT30;58692;43.212;27.908;2023-02-28T09:09:59;8.20;81.86
71039;SHT30;58692;43.212;27.908;2023-02-28T09:12:33;8.04;81.97
71039;SHT30;58692;43.212;27.908;2023-02-28T09:15:41;8.23;82.34
71039;SHT30;58692;43.212;27.908;2023-02-28T09:18:38;8.15;81.67
71039;SHT30;58692;43.212;27.908;2023-02-28T09:21:10;8.30;81.67
71039;SHT30;58692;43.212;27.908;2023-02-28T09:23:38;8.34;81.77
71039;SHT30;58692;43.212;27.908;2023-02-28T09:26:07;8.49;81.33
71039;SHT30;58692;43.212;27.908;2023-02-28T09:28:34;8.23;80.02
71039;SHT30;58692;43.212;27.908;2023-02-28T09:31:00;8.27;81.28
71039;SHT30;58692;43.212;27.908;2023-02-28T09:33:49;7.98;82.01
71039;SHT30;58692;43.212;27.908;2023-02-28T09:36:30;8.08;81.35
71039;SHT30;58692;43.212;27.908;2023-02-28T09:39:20;8.15;81.43
71039;SHT30;58692;43.212;27.908;2023-02-28T09:41:56;8.24;82.13
71039;SHT30;58692;43.212;27.908;2023-02-28T09:44:33;8.44;81.43
71039;SHT30;58692;43.212;27.908;2023-02-28T09:47:06;8.41;80.29
71039;SHT30;58692;43.212;27.908;2023-02-28T09:49:40;8.23;80.49
71039;SHT30;58692;43.212;27.908;2023-02-28T09:52:13;8.17;81.88
71039;SHT30;58692;43.212;27.908;2023-02-28T09:54:43;8.05;81.27
71039;SHT30;58692;43.212;27.908;2023-02-28T09:57:33;8.01;80.66
71039;SHT30;58692;43.212;27.908;2023-02-28T10:00:22;7.87;81.25
71039;SHT30;58692;43.212;27.908;2023-02-28T10:05:43;7.86;81.25
71039;SHT30;58692;43.212;27.908;2023-02-28T10:08:16;7.58;81.34
71039;SHT30;58692;43.212;27.908;2023-02-28T10:10:48;7.89;82.21
71039;SHT30;58692;43.212;27.908;2023-02-28T10:17:29;7.86;81.23
71039;SHT30;58692;43.212;27.908;2023-02-28T10:20:35;7.65;81.63
71039;SHT30;58692;43.212;27.908;2023-02-28T10:23:11;7.65;81.76
71039;SHT30;58692;43.212;27.908;2023-02-28T10:25:53;7.79;81.79
71039;SHT30;58692;43.212;27.908;2023-02-28T10:28:26;7.87;82.02
71039;SHT30;58692;43.212;27.908;2023-02-28T10:31:01;7.82;81.90
71039;SHT30;58692;43.212;27.908;2023-02-28T10:33:31;7.84;81.66
71039;SHT30;58692;43.212;27.908;2023-02-28T10:35:58;8.11;81.20
71039;SHT30;58692;43.212;27.908;2023-02-28T10:38:31;7.91;80.57
71039;SHT30;58692;43.212;27.908;2023-02-28T10:41:08;7.93;81.04
71039;SHT30;58692;43.212;27.908;2023-02-28T10:43:35;7.89;80.11
71039;SHT30;58692;43.212;27.908;2023-02-28T10:46:12;7.76;80.77
71039;SHT30;58692;43.212;27.908;2023-02-28T10:48:50;7.80;80.75
71039;SHT30;58692;43.212;27.908;2023-02-28T10:51:23;7.70;81.06
71039;SHT30;58692;43.212;27.908;2023-02-28T10:54:16;7.82;81.34
71039;SHT30;58692;43.212;27.908;2023-02-28T10:56:43;7.91;81.62
71039;SHT30;58692;43.212;27.908;2023-02-28T10:59:30;8.07;81.40
71039;SHT30;58692;43.212;27.908;2023-02-28T11:05:38;8.07;81.57
71039;SHT30;58692;43.212;27.908;2023-02-28T11:08:42;8.17;80.85
71039;SHT30;58692;43.212;27.908;2023-02-28T11:11:41;8.10;80.30
71039;SHT30;58692;43.212;27.908;2023-02-28T11:14:22;7.93;80.63
71039;SHT30;58692;43.212;27.908;2023-02-28T11:16:49;8.05;80.60
71039;SHT30;58692;43.212;27.908;2023-02-28T11:19:28;7.90;81.15
71039;SHT30;58692;43.212;27.908;2023-02-28T11:22:00;8.01;81.28
71039;SHT30;58692;43.212;27.908;2023-02-28T11:32:05;7.67;84.13
71039;SHT30;58692;43.212;27.908;2023-02-28T11:37:48;7.74;82.68
71039;SHT30;58692;43.212;27.908;2023-02-28T11:46:40;7.86;81.76
71039;SHT30;58692;43.212;27.908;2023-02-28T11:52:19;7.91;81.78
71039;SHT30;58692;43.212;27.908;2023-02-28T12:00:50;7.67;81.90
71039;SHT30;58692;43.212;27.908;2023-02-28T12:03:39;7.73;81.81
71039;SHT30;58692;43.212;27.908;2023-02-28T12:09:00;7.91;80.38
71039;SHT30;58692;43.212;27.908;2023-02-28T12:14:15;7.79;80.68
71039;SHT30;58692;43.212;27.908;2023-02-28T12:19:22;7.70;81.29
71039;SHT30;58692;43.212;27.908;2023-02-28T12:22:27;7.70;81.21
71039;SHT30;58692;43.212;27.908;2023-02-28T12:25:24;7.83;80.56
71039;SHT30;58692;43.212;27.908;2023-02-28T12:27:51;7.59;81.39
71039;SHT30;58692;43.212;27.908;2023-02-28T12:30:25;7.55;81.55
71039;SHT30;58692;43.212;27.908;2023-02-28T12:32:58;7.52;81.64
71039;SHT30;58692;43.212;27.908;2023-02-28T12:35:34;7.49;81.88
71039;SHT30;58692;43.212;27.908;2023-02-28T12:38:14;7.48;82.02
71039;SHT30;58692;43.212;27.908;2023-02-28T12:40:52;7.58;82.38
71039;SHT30;58692;43.212;27.908;2023-02-28T12:43:23;7.55;82.01
71039;SHT30;58692;43.212;27.908;2023-02-28T12:45:58;7.60;81.91
71039;SHT30;58692;43.212;27.908;2023-02-28T12:48:31;7.40;82.80
71039;SHT30;58692;43.212;27.908;2023-02-28T12:50:59;7.38;81.79
71039;SHT30;58692;43.212;27.908;2023-02-28T12:53:28;7.43;81.82
71039;SHT30;58692;43.212;27.908;2023-02-28T12:58:33;7.60;81.32
71039;SHT30;58692;43.212;27.908;2023-02-28T13:01:26;7.42;81.53
71039;SHT30;58692;43.212;27.908;2023-02-28T13:04:21;7.40;81.87
71039;SHT30;58692;43.212;27.908;2023-02-28T13:09:37;7.40;82.38
71039;SHT30;58692;43.212;27.908;2023-02-28T13:12:17;7.50;81.92
71039;SHT30;58692;43.212;27.908;2023-02-28T13:14:46;7.45;82.04
71039;SHT30;58692;43.212;27.908;2023-02-28T13:17:14;7.39;81.92
71039;SHT30;58692;43.212;27.908;2023-02-28T13:19:57;7.35;82.30
71039;SHT30;58692;43.212;27.908;2023-02-28T13:24:55;7.35;82.58
71039;SHT30;58692;43.212;27.908;2023-02-28T13:38:48;7.40;82.65
71039;SHT30;58692;43.212;27.908;2023-02-28T13:44:13;7.49;82.20
71039;SHT30;58692;43.212;27.908;2023-02-28T13:49:51;7.50;81.88
71039;SHT30;58692;43.212;27.908;2023-02-28T13:52:21;7.43;82.20
71039;SHT30;58692;43.212;27.908;2023-02-28T13:57:52;7.32;83.09
71039;SHT30;58692;43.212;27.908;2023-02-28T14:00:27;7.33;82.79
71039;SHT30;58692;43.212;27.908;2023-02-28T14:05:37;7.01;83.31
71039;SHT30;58692;43.212;27.908;2023-02-28T14:08:27;7.12;83.13
71039;SHT30;58692;43.212;27.908;2023-02-28T14:11:27;6.99;83.57
71039;SHT30;58692;43.212;27.908;2023-02-28T14:17:31;6.84;83.67
71039;SHT30;58692;43.212;27.908;2023-02-28T14:19:57;7.05;83.57
71039;SHT30;58692;43.212;27.908;2023-02-28T14:25:31;6.97;83.79
71039;SHT30;58692;43.212;27.908;2023-02-28T14:34:00;7.15;82.57
71039;SHT30;58692;43.212;27.908;2023-02-28T14:36:45;7.26;82.39
71039;SHT30;58692;43.212;27.908;2023-02-28T14:39:15;7.32;82.47
71039;SHT30;58692;43.212;27.908;2023-02-28T14:41:45;7.33;82.15
71039;SHT30;58692;43.212;27.908;2023-02-28T14:44:23;7.08;82.96
71039;SHT30;58692;43.212;27.908;2023-02-28T14:46:55;7.18;82.91
71039;SHT30;58692;43.212;27.908;2023-02-28T14:50:03;6.99;83.53
71039;SHT30;58692;43.212;27.908;2023-02-28T14:52:51;7.05;83.13
71039;SHT30;58692;43.212;27.908;2023-02-28T14:55:20;7.07;83.25
71039;SHT30;58692;43.212;27.908;2023-02-28T14:58:00;7.08;83.30
71039;SHT30;58692;43.212;27.908;2023-02-28T15:00:47;7.14;82.67
71039;SHT30;58692;43.212;27.908;2023-02-28T15:03:22;7.14;83.70
71039;SHT30;58692;43.212;27.908;2023-02-28T15:06:00;7.21;82.94
71039;SHT30;58692;43.212;27.908;2023-02-28T15:08:29;7.19;82.62
71039;SHT30;58692;43.212;27.908;2023-02-28T15:10:58;7.15;82.46
71039;SHT30;58692;43.212;27.908;2023-02-28T15:13:36;7.01;82.96
71039;SHT30;58692;43.212;27.908;2023-02-28T15:16:08;7.05;82.89
71039;SHT30;58692;43.212;27.908;2023-02-28T15:18:50;6.95;82.93
71039;SHT30;58692;43.212;27.908;2023-02-28T15:21:25;6.89;83.23
71039;SHT30;58692;43.212;27.908;2023-02-28T15:27:05;6.70;84.41
71039;SHT30;58692;43.212;27.908;2023-02-28T15:29:45;6.63;84.66
71039;SHT30;58692;43.212;27.908;2023-02-28T15:32:35;6.76;84.54
71039;SHT30;58692;43.212;27.908;2023-02-28T15:35:18;6.71;84.54
71039;SHT30;58692;43.212;27.908;2023-02-28T15:40:40;6.63;84.70
71039;SHT30;58692;43.212;27.908;2023-02-28T15:43:16;6.81;84.78
71039;SHT30;58692;43.212;27.908;2023-02-28T15:48:25;6.66;84.25
71039;SHT30;58692;43.212;27.908;2023-02-28T15:50:58;6.56;85.26
71039;SHT30;58692;43.212;27.908;2023-02-28T15:53:31;6.54;85.17
71039;SHT30;58692;43.212;27.908;2023-02-28T15:56:06;6.40;85.87
71039;SHT30;58692;43.212;27.908;2023-02-28T15:58:35;6.38;85.74
71039;SHT30;58692;43.212;27.908;2023-02-28T16:03:43;6.61;85.65
71039;SHT30;58692;43.212;27.908;2023-02-28T16:08:47;6.56;85.46
71039;SHT30;58692;43.212;27.908;2023-02-28T16:11:14;6.51;85.65
71039;SHT30;58692;43.212;27.908;2023-02-28T16:13:42;6.54;85.75
71039;SHT30;58692;43.212;27.908;2023-02-28T16:16:28;6.43;85.80
71039;SHT30;58692;43.212;27.908;2023-02-28T16:18:55;6.50;86.09
71039;SHT30;58692;43.212;27.908;2023-02-28T16:21:28;6.47;86.00
71039;SHT30;58692;43.212;27.908;2023-02-28T16:24:03;6.46;86.12
71039;SHT30;58692;43.212;27.908;2023-02-28T16:26:39;6.43;86.10
71039;SHT30;58692;43.212;27.908;2023-02-28T16:29:13;6.40;86.19
71039;SHT30;58692;43.212;27.908;2023-02-28T16:31:48;6.47;86.09
71039;SHT30;58692;43.212;27.908;2023-02-28T16:34:14;6.57;85.72
71039;SHT30;58692;43.212;27.908;2023-02-28T16:36:40;6.51;85.69
71039;SHT30;58692;43.212;27.908;2023-02-28T16:39:06;6.57;85.32
71039;SHT30;58692;43.212;27.908;2023-02-28T16:41:36;6.50;85.70
71039;SHT30;58692;43.212;27.908;2023-02-28T16:44:03;6.57;85.18
71039;SHT30;58692;43.212;27.908;2023-02-28T16:46:34;6.67;84.99
71039;SHT30;58692;43.212;27.908;2023-02-28T16:49:00;6.78;84.72
71039;SHT30;58692;43.212;27.908;2023-02-28T16:51:26;6.53;85.03
71039;SHT30;58692;43.212;27.908;2023-02-28T16:53:52;6.46;85.46
71039;SHT30;58692;43.212;27.908;2023-02-28T16:56:21;6.53;85.23
71039;SHT30;58692;43.212;27.908;2023-02-28T16:58:48;6.66;84.84
71039;SHT30;58692;43.212;27.908;2023-02-28T17:01:16;6.54;84.88
71039;SHT30;58692;43.212;27.908;2023-02-28T17:03:41;6.53;85.14
71039;SHT30;58692;43.212;27.908;2023-02-28T17:06:17;6.51;85.26
71039;SHT30;58692;43.212;27.908;2023-02-28T17:08:44;6.60;85.13
71039;SHT30;58692;43.212;27.908;2023-02-28T17:11:10;6.56;84.90
71039;SHT30;58692;43.212;27.908;2023-02-28T17:13:36;6.54;84.99
71039;SHT30;58692;43.212;27.908;2023-02-28T17:16:04;6.47;85.35
71039;SHT30;58692;43.212;27.908;2023-02-28T17:18:29;6.53;85.15
71039;SHT30;58692;43.212;27.908;2023-02-28T17:21:00;6.46;85.30
71039;SHT30;58692;43.212;27.908;2023-02-28T17:23:25;6.36;86.16
71039;SHT30;58692;43.212;27.908;2023-02-28T17:25:51;6.40;85.89
71039;SHT30;58692;43.212;27.908;2023-02-28T17:28:21;6.48;85.75
71039;SHT30;58692;43.212;27.908;2023-02-28T17:30:47;6.46;85.64
71039;SHT30;58692;43.212;27.908;2023-02-28T17:33:14;6.36;86.45
71039;SHT30;58692;43.212;27.908;2023-02-28T17:35:40;6.44;86.69
71039;SHT30;58692;43.212;27.908;2023-02-28T17:38:15;6.37;86.40
71039;SHT30;58692;43.212;27.908;2023-02-28T17:40:40;6.24;86.84
71039;SHT30;58692;43.212;27.908;2023-02-28T17:43:06;6.19;87.48
71039;SHT30;58692;43.212;27.908;2023-02-28T17:45:32;6.32;87.90
71039;SHT30;58692;43.212;27.908;2023-02-28T17:47:59;6.36;87.59
71039;SHT30;58692;43.212;27.908;2023-02-28T17:50:26;6.33;87.25
71039;SHT30;58692;43.212;27.908;2023-02-28T17:52:52;6.30;88.34
71039;SHT30;58692;43.212;27.908;2023-02-28T17:55:17;6.36;88.17
71039;SHT30;58692;43.212;27.908;2023-02-28T17:57:44;6.37;87.78
71039;SHT30;58692;43.212;27.908;2023-02-28T18:00:13;6.30;87.48
71039;SHT30;58692;43.212;27.908;2023-02-28T18:02:38;6.30;88.13
71039;SHT30;58692;43.212;27.908;2023-02-28T18:05:04;6.36;87.84
71039;SHT30;58692;43.212;27.908;2023-02-28T18:07:30;6.47;87.82